sensor_id;sensor_type;location;lat;lon;timestamp;P1;durP1;ratioP1;P2;durP2;ratioP2
50709;SDS011;37033;49.994;21.992;2023-04-16T00:02:19;18.40;;;8.70;;
50709;SDS011;37033;49.994;21.992;2023-04-16T00:04:51;11.50;;;7.90;;
50709;SDS011;37033;49.994;21.992;2023-04-16T00:07:22;15.20;;;8.30;;
50709;SDS011;37033;49.994;21.992;2023-04-16T00:09:53;13.50;;;8.80;;
50709;SDS011;37033;49.994;21.992;2023-04-16T00:12:23;14.40;;;8.70;;
50709;SDS011;37033;49.994;21.992;2023-04-16T00:14:54;13.80;;;7.70;;
50709;SDS011;37033;49.994;21.992;2023-04-16T00:17:25;10.10;;;8.10;;
50709;SDS011;37033;49.994;21.992;2023-04-16T00:19:57;12.50;;;7.80;;
50709;SDS011;37033;49.994;21.992;2023-04-16T00:22:28;10.50;;;7.60;;
50709;SDS011;37033;49.994;21.992;2023-04-16T00:24:59;11.40;;;7.40;;
50709;SDS011;37033;49.994;21.992;2023-04-16T00:27:30;8.40;;;7.30;;
50709;SDS011;37033;49.994;21.992;2023-04-16T00:30:00;8.90;;;7.20;;
50709;SDS011;37033;49.994;21.992;2023-04-16T00:32:31;8.80;;;7.20;;
50709;SDS011;37033;49.994;21.992;2023-04-16T00:35:02;7.80;;;6.10;;
50709;SDS011;37033;49.994;21.992;2023-04-16T00:37:34;7.40;;;6.50;;
50709;SDS011;37033;49.994;21.992;2023-04-16T00:40:05;13.10;;;7.30;;
50709;SDS011;37033;49.994;21.992;2023-04-16T00:42:37;8.80;;;6.70;;
50709;SDS011;37033;49.994;21.992;2023-04-16T00:45:10;8.70;;;6.30;;
50709;SDS011;37033;49.994;21.992;2023-04-16T00:47:41;9.90;;;6.90;;
50709;SDS011;37033;49.994;21.992;2023-04-16T00:50:12;10.40;;;6.60;;
50709;SDS011;37033;49.994;21.992;2023-04-16T00:52:44;9.70;;;6.80;;
50709;SDS011;37033;49.994;21.992;2023-04-16T00:55:17;6.30;;;5.40;;
50709;SDS011;37033;49.994;21.992;2023-04-16T00:57:48;8.40;;;5.10;;
50709;SDS011;37033;49.994;21.992;2023-04-16T01:00:19;7.90;;;5.80;;
50709;SDS011;37033;49.994;21.992;2023-04-16T01:02:50;8.80;;;6.00;;
50709;SDS011;37033;49.994;21.992;2023-04-16T01:05:22;8.30;;;5.50;;
50709;SDS011;37033;49.994;21.992;2023-04-16T01:07:52;6.80;;;5.30;;
50709;SDS011;37033;49.994;21.992;2023-04-16T01:10:26;8.80;;;5.60;;
50709;SDS011;37033;49.994;21.992;2023-04-16T01:12:57;14.00;;;6.10;;
50709;SDS011;37033;49.994;21.992;2023-04-16T01:15:28;7.30;;;5.90;;
50709;SDS011;37033;49.994;21.992;2023-04-16T01:17:59;9.30;;;6.20;;
50709;SDS011;37033;49.994;21.992;2023-04-16T01:23:04;8.00;;;6.10;;
50709;SDS011;37033;49.994;21.992;2023-04-16T01:25:35;7.90;;;6.00;;
50709;SDS011;37033;49.994;21.992;2023-04-16T01:28:06;8.30;;;5.50;;
50709;SDS011;37033;49.994;21.992;2023-04-16T01:30:36;9.60;;;5.90;;
50709;SDS011;37033;49.994;21.992;2023-04-16T01:33:09;8.40;;;5.40;;
50709;SDS011;37033;49.994;21.992;2023-04-16T01:35:40;9.40;;;5.70;;
50709;SDS011;37033;49.994;21.992;2023-04-16T01:38:11;10.20;;;6.90;;
50709;SDS011;37033;49.994;21.992;2023-04-16T01:40:42;13.70;;;8.80;;
50709;SDS011;37033;49.994;21.992;2023-04-16T01:43:12;16.30;;;11.70;;
50709;SDS011;37033;49.994;21.992;2023-04-16T01:45:43;16.90;;;13.10;;
50709;SDS011;37033;49.994;21.992;2023-04-16T01:48:14;17.80;;;12.00;;
50709;SDS011;37033;49.994;21.992;2023-04-16T01:50:44;14.30;;;9.30;;
50709;SDS011;37033;49.994;21.992;2023-04-16T01:53:15;10.40;;;7.20;;
50709;SDS011;37033;49.994;21.992;2023-04-16T01:55:46;12.00;;;7.40;;
50709;SDS011;37033;49.994;21.992;2023-04-16T01:58:16;9.70;;;6.80;;
50709;SDS011;37033;49.994;21.992;2023-04-16T02:00:47;10.40;;;8.60;;
50709;SDS011;37033;49.994;21.992;2023-04-16T02:03:18;12.80;;;9.80;;
50709;SDS011;37033;49.994;21.992;2023-04-16T02:05:51;15.20;;;8.50;;
50709;SDS011;37033;49.994;21.992;2023-04-16T02:08:22;9.30;;;7.20;;
50709;SDS011;37033;49.994;21.992;2023-04-16T02:10:52;9.70;;;6.10;;
50709;SDS011;37033;49.994;21.992;2023-04-16T02:13:24;6.70;;;5.30;;
50709;SDS011;37033;49.994;21.992;2023-04-16T02:15:55;8.40;;;5.10;;
50709;SDS011;37033;49.994;21.992;2023-04-16T02:18:26;6.30;;;4.60;;
50709;SDS011;37033;49.994;21.992;2023-04-16T02:20:57;5.50;;;5.00;;
50709;SDS011;37033;49.994;21.992;2023-04-16T02:23:28;8.90;;;4.90;;
50709;SDS011;37033;49.994;21.992;2023-04-16T02:25:59;6.80;;;5.40;;
50709;SDS011;37033;49.994;21.992;2023-04-16T02:28:30;6.10;;;5.20;;
50709;SDS011;37033;49.994;21.992;2023-04-16T02:31:01;8.10;;;5.20;;
50709;SDS011;37033;49.994;21.992;2023-04-16T02:33:32;6.20;;;5.00;;
50709;SDS011;37033;49.994;21.992;2023-04-16T02:36:03;8.20;;;4.90;;
50709;SDS011;37033;49.994;21.992;2023-04-16T02:38:34;7.30;;;5.00;;
50709;SDS011;37033;49.994;21.992;2023-04-16T02:41:05;6.40;;;5.40;;
50709;SDS011;37033;49.994;21.992;2023-04-16T02:43:35;8.30;;;5.30;;
50709;SDS011;37033;49.994;21.992;2023-04-16T02:46:06;8.00;;;5.80;;
50709;SDS011;37033;49.994;21.992;2023-04-16T02:48:37;7.60;;;5.80;;
50709;SDS011;37033;49.994;21.992;2023-04-16T02:51:08;10.80;;;5.70;;
50709;SDS011;37033;49.994;21.992;2023-04-16T02:53:38;7.90;;;5.80;;
50709;SDS011;37033;49.994;21.992;2023-04-16T02:56:12;7.90;;;5.30;;
50709;SDS011;37033;49.994;21.992;2023-04-16T02:58:43;6.50;;;4.90;;
50709;SDS011;37033;49.994;21.992;2023-04-16T03:01:13;7.40;;;4.90;;
50709;SDS011;37033;49.994;21.992;2023-04-16T03:03:44;7.10;;;5.00;;
50709;SDS011;37033;49.994;21.992;2023-04-16T03:06:15;4.90;;;4.40;;
50709;SDS011;37033;49.994;21.992;2023-04-16T03:08:46;5.30;;;3.80;;
50709;SDS011;37033;49.994;21.992;2023-04-16T03:11:17;4.00;;;3.50;;
50709;SDS011;37033;49.994;21.992;2023-04-16T03:13:47;5.70;;;4.30;;
50709;SDS011;37033;49.994;21.992;2023-04-16T03:16:18;4.40;;;3.70;;
50709;SDS011;37033;49.994;21.992;2023-04-16T03:18:49;4.90;;;4.30;;
50709;SDS011;37033;49.994;21.992;2023-04-16T03:21:20;5.00;;;4.30;;
50709;SDS011;37033;49.994;21.992;2023-04-16T03:23:50;5.20;;;4.00;;
50709;SDS011;37033;49.994;21.992;2023-04-16T03:26:22;3.70;;;3.30;;
50709;SDS011;37033;49.994;21.992;2023-04-16T03:28:53;4.00;;;3.60;;
50709;SDS011;37033;49.994;21.992;2023-04-16T03:31:24;6.90;;;3.90;;
50709;SDS011;37033;49.994;21.992;2023-04-16T03:33:55;4.50;;;3.80;;
50709;SDS011;37033;49.994;21.992;2023-04-16T03:36:25;7.20;;;3.70;;
50709;SDS011;37033;49.994;21.992;2023-04-16T03:38:56;10.20;;;3.90;;
50709;SDS011;37033;49.994;21.992;2023-04-16T03:41:27;5.50;;;4.80;;
50709;SDS011;37033;49.994;21.992;2023-04-16T03:43:58;6.40;;;5.10;;
50709;SDS011;37033;49.994;21.992;2023-04-16T03:46:28;6.40;;;5.70;;
50709;SDS011;37033;49.994;21.992;2023-04-16T03:48:59;6.20;;;5.40;;
50709;SDS011;37033;49.994;21.992;2023-04-16T03:51:30;9.30;;;6.60;;
50709;SDS011;37033;49.994;21.992;2023-04-16T03:54:00;10.30;;;6.90;;
50709;SDS011;37033;49.994;21.992;2023-04-16T03:56:31;11.00;;;7.80;;
50709;SDS011;37033;49.994;21.992;2023-04-16T03:59:02;13.90;;;10.30;;
50709;SDS011;37033;49.994;21.992;2023-04-16T04:01:32;9.40;;;8.20;;
50709;SDS011;37033;49.994;21.992;2023-04-16T04:04:03;10.90;;;8.70;;
50709;SDS011;37033;49.994;21.992;2023-04-16T04:06:34;11.20;;;7.80;;
50709;SDS011;37033;49.994;21.992;2023-04-16T04:09:05;12.50;;;8.50;;
50709;SDS011;37033;49.994;21.992;2023-04-16T04:11:36;11.90;;;8.40;;
50709;SDS011;37033;49.994;21.992;2023-04-16T04:14:06;8.10;;;6.70;;
50709;SDS011;37033;49.994;21.992;2023-04-16T04:16:37;10.80;;;7.40;;
50709;SDS011;37033;49.994;21.992;2023-04-16T04:19:08;9.90;;;6.90;;
50709;SDS011;37033;49.994;21.992;2023-04-16T04:21:39;10.10;;;8.20;;
50709;SDS011;37033;49.994;21.992;2023-04-16T04:24:09;11.10;;;8.00;;
50709;SDS011;37033;49.994;21.992;2023-04-16T04:26:40;9.30;;;7.60;;
50709;SDS011;37033;49.994;21.992;2023-04-16T04:29:11;9.30;;;7.80;;
50709;SDS011;37033;49.994;21.992;2023-04-16T04:31:42;11.40;;;8.00;;
50709;SDS011;37033;49.994;21.992;2023-04-16T04:34:13;11.80;;;8.30;;
50709;SDS011;37033;49.994;21.992;2023-04-16T04:36:43;11.80;;;8.70;;
50709;SDS011;37033;49.994;21.992;2023-04-16T04:39:14;11.40;;;9.20;;
50709;SDS011;37033;49.994;21.992;2023-04-16T04:41:47;13.50;;;8.30;;
50709;SDS011;37033;49.994;21.992;2023-04-16T04:44:18;11.70;;;8.40;;
50709;SDS011;37033;49.994;21.992;2023-04-16T04:46:48;9.50;;;7.20;;
50709;SDS011;37033;49.994;21.992;2023-04-16T04:49:19;9.00;;;6.60;;
50709;SDS011;37033;49.994;21.992;2023-04-16T04:51:50;5.80;;;4.70;;
50709;SDS011;37033;49.994;21.992;2023-04-16T04:54:20;7.20;;;5.20;;
50709;SDS011;37033;49.994;21.992;2023-04-16T04:56:51;6.10;;;5.50;;
50709;SDS011;37033;49.994;21.992;2023-04-16T04:59:22;7.30;;;5.50;;
50709;SDS011;37033;49.994;21.992;2023-04-16T05:01:53;6.20;;;5.10;;
50709;SDS011;37033;49.994;21.992;2023-04-16T05:04:24;5.10;;;4.20;;
50709;SDS011;37033;49.994;21.992;2023-04-16T05:06:54;11.90;;;5.90;;
50709;SDS011;37033;49.994;21.992;2023-04-16T05:09:25;6.30;;;5.40;;
50709;SDS011;37033;49.994;21.992;2023-04-16T05:11:56;6.50;;;5.80;;
50709;SDS011;37033;49.994;21.992;2023-04-16T05:14:26;8.20;;;6.20;;
50709;SDS011;37033;49.994;21.992;2023-04-16T05:16:57;5.50;;;4.70;;
50709;SDS011;37033;49.994;21.992;2023-04-16T05:19:28;5.90;;;5.30;;
50709;SDS011;37033;49.994;21.992;2023-04-16T05:21:58;4.90;;;4.00;;
50709;SDS011;37033;49.994;21.992;2023-04-16T05:24:29;4.90;;;3.90;;
50709;SDS011;37033;49.994;21.992;2023-04-16T05:27:00;5.40;;;4.40;;
50709;SDS011;37033;49.994;21.992;2023-04-16T05:29:30;4.80;;;3.60;;
50709;SDS011;37033;49.994;21.992;2023-04-16T05:32:01;4.70;;;4.30;;
50709;SDS011;37033;49.994;21.992;2023-04-16T05:34:32;4.70;;;4.00;;
50709;SDS011;37033;49.994;21.992;2023-04-16T05:37:03;4.10;;;3.50;;
50709;SDS011;37033;49.994;21.992;2023-04-16T05:39:33;6.10;;;3.10;;
50709;SDS011;37033;49.994;21.992;2023-04-16T05:42:04;3.30;;;2.80;;
50709;SDS011;37033;49.994;21.992;2023-04-16T05:44:35;4.50;;;3.40;;
50709;SDS011;37033;49.994;21.992;2023-04-16T05:47:05;4.00;;;3.00;;
50709;SDS011;37033;49.994;21.992;2023-04-16T05:49:36;3.30;;;3.00;;
50709;SDS011;37033;49.994;21.992;2023-04-16T05:52:07;3.20;;;2.90;;
50709;SDS011;37033;49.994;21.992;2023-04-16T05:54:38;4.60;;;2.90;;
50709;SDS011;37033;49.994;21.992;2023-04-16T05:57:08;3.60;;;3.20;;
50709;SDS011;37033;49.994;21.992;2023-04-16T05:59:41;2.80;;;2.60;;
50709;SDS011;37033;49.994;21.992;2023-04-16T06:02:12;3.60;;;2.80;;
50709;SDS011;37033;49.994;21.992;2023-04-16T06:04:42;4.40;;;3.20;;
50709;SDS011;37033;49.994;21.992;2023-04-16T06:07:13;4.80;;;2.80;;
50709;SDS011;37033;49.994;21.992;2023-04-16T06:09:44;2.80;;;2.40;;
50709;SDS011;37033;49.994;21.992;2023-04-16T06:12:14;2.60;;;2.30;;
50709;SDS011;37033;49.994;21.992;2023-04-16T06:14:45;2.80;;;2.30;;
50709;SDS011;37033;49.994;21.992;2023-04-16T06:17:16;2.60;;;2.00;;
50709;SDS011;37033;49.994;21.992;2023-04-16T06:19:47;2.80;;;2.20;;
50709;SDS011;37033;49.994;21.992;2023-04-16T06:22:17;2.90;;;2.40;;
50709;SDS011;37033;49.994;21.992;2023-04-16T06:24:48;3.50;;;3.00;;
50709;SDS011;37033;49.994;21.992;2023-04-16T06:27:19;2.90;;;1.80;;
50709;SDS011;37033;49.994;21.992;2023-04-16T06:29:49;3.00;;;2.20;;
50709;SDS011;37033;49.994;21.992;2023-04-16T06:32:20;2.80;;;2.10;;
50709;SDS011;37033;49.994;21.992;2023-04-16T06:34:51;1.90;;;1.70;;
50709;SDS011;37033;49.994;21.992;2023-04-16T06:37:23;2.10;;;1.70;;
50709;SDS011;37033;49.994;21.992;2023-04-16T06:39:53;1.30;;;1.20;;
50709;SDS011;37033;49.994;21.992;2023-04-16T06:42:24;2.40;;;2.20;;
50709;SDS011;37033;49.994;21.992;2023-04-16T06:44:55;1.90;;;1.60;;
50709;SDS011;37033;49.994;21.992;2023-04-16T06:47:25;1.60;;;1.30;;
50709;SDS011;37033;49.994;21.992;2023-04-16T06:49:56;3.40;;;1.70;;
50709;SDS011;37033;49.994;21.992;2023-04-16T06:52:27;1.60;;;1.50;;
50709;SDS011;37033;49.994;21.992;2023-04-16T06:54:58;18.80;;;10.40;;
50709;SDS011;37033;49.994;21.992;2023-04-16T06:57:29;4.80;;;3.30;;
50709;SDS011;37033;49.994;21.992;2023-04-16T06:59:59;2.50;;;2.20;;
50709;SDS011;37033;49.994;21.992;2023-04-16T07:02:31;2.80;;;1.90;;
50709;SDS011;37033;49.994;21.992;2023-04-16T07:05:02;1.60;;;1.50;;
50709;SDS011;37033;49.994;21.992;2023-04-16T07:07:33;3.00;;;1.80;;
50709;SDS011;37033;49.994;21.992;2023-04-16T07:10:06;1.90;;;1.50;;
50709;SDS011;37033;49.994;21.992;2023-04-16T07:12:38;8.90;;;5.80;;
50709;SDS011;37033;49.994;21.992;2023-04-16T07:15:09;4.00;;;1.80;;
50709;SDS011;37033;49.994;21.992;2023-04-16T07:17:40;1.70;;;1.30;;
50709;SDS011;37033;49.994;21.992;2023-04-16T07:20:11;3.40;;;1.50;;
50709;SDS011;37033;49.994;21.992;2023-04-16T07:22:42;1.60;;;1.30;;
50709;SDS011;37033;49.994;21.992;2023-04-16T07:25:13;2.60;;;1.30;;
50709;SDS011;37033;49.994;21.992;2023-04-16T07:27:44;1.70;;;1.20;;
50709;SDS011;37033;49.994;21.992;2023-04-16T07:30:14;3.40;;;1.60;;
50709;SDS011;37033;49.994;21.992;2023-04-16T07:32:45;2.40;;;1.30;;
50709;SDS011;37033;49.994;21.992;2023-04-16T07:35:16;1.00;;;0.90;;
50709;SDS011;37033;49.994;21.992;2023-04-16T07:37:47;3.10;;;1.10;;
50709;SDS011;37033;49.994;21.992;2023-04-16T07:40:17;1.30;;;0.90;;
50709;SDS011;37033;49.994;21.992;2023-04-16T07:42:48;1.30;;;0.90;;
50709;SDS011;37033;49.994;21.992;2023-04-16T07:45:19;4.30;;;1.30;;
50709;SDS011;37033;49.994;21.992;2023-04-16T07:47:49;1.20;;;0.90;;
50709;SDS011;37033;49.994;21.992;2023-04-16T07:50:20;0.80;;;0.70;;
50709;SDS011;37033;49.994;21.992;2023-04-16T07:52:51;2.70;;;0.60;;
50709;SDS011;37033;49.994;21.992;2023-04-16T07:55:21;0.90;;;0.60;;
50709;SDS011;37033;49.994;21.992;2023-04-16T07:57:52;2.40;;;1.90;;
50709;SDS011;37033;49.994;21.992;2023-04-16T08:00:23;1.10;;;0.80;;
50709;SDS011;37033;49.994;21.992;2023-04-16T08:02:54;0.40;;;0.40;;
50709;SDS011;37033;49.994;21.992;2023-04-16T08:05:24;0.80;;;0.50;;
50709;SDS011;37033;49.994;21.992;2023-04-16T08:07:55;0.70;;;0.50;;
50709;SDS011;37033;49.994;21.992;2023-04-16T08:10:26;1.20;;;0.40;;
50709;SDS011;37033;49.994;21.992;2023-04-16T08:12:56;0.50;;;0.40;;
50709;SDS011;37033;49.994;21.992;2023-04-16T08:15:29;0.60;;;0.50;;
50709;SDS011;37033;49.994;21.992;2023-04-16T08:18:00;0.70;;;0.40;;
50709;SDS011;37033;49.994;21.992;2023-04-16T08:20:32;0.60;;;0.50;;
50709;SDS011;37033;49.994;21.992;2023-04-16T08:23:03;1.10;;;0.50;;
50709;SDS011;37033;49.994;21.992;2023-04-16T08:25:34;0.60;;;0.50;;
50709;SDS011;37033;49.994;21.992;2023-04-16T08:28:05;0.80;;;0.60;;
50709;SDS011;37033;49.994;21.992;2023-04-16T08:30:35;1.20;;;0.90;;
50709;SDS011;37033;49.994;21.992;2023-04-16T08:33:06;0.60;;;0.50;;
50709;SDS011;37033;49.994;21.992;2023-04-16T08:35:37;0.90;;;0.70;;
50709;SDS011;37033;49.994;21.992;2023-04-16T08:38:07;0.90;;;0.60;;
50709;SDS011;37033;49.994;21.992;2023-04-16T08:40:38;0.50;;;0.50;;
50709;SDS011;37033;49.994;21.992;2023-04-16T08:43:09;1.10;;;0.60;;
50709;SDS011;37033;49.994;21.992;2023-04-16T08:45:43;0.50;;;0.50;;
50709;SDS011;37033;49.994;21.992;2023-04-16T08:48:15;0.70;;;0.60;;
50709;SDS011;37033;49.994;21.992;2023-04-16T08:50:48;0.90;;;0.50;;
50709;SDS011;37033;49.994;21.992;2023-04-16T08:53:23;0.60;;;0.50;;
50709;SDS011;37033;49.994;21.992;2023-04-16T08:56:03;0.70;;;0.60;;
50709;SDS011;37033;49.994;21.992;2023-04-16T08:58:37;0.50;;;0.40;;
50709;SDS011;37033;49.994;21.992;2023-04-16T09:01:09;1.30;;;0.70;;
50709;SDS011;37033;49.994;21.992;2023-04-16T09:03:40;2.30;;;0.60;;
50709;SDS011;37033;49.994;21.992;2023-04-16T09:06:12;4.70;;;0.70;;
50709;SDS011;37033;49.994;21.992;2023-04-16T09:08:44;0.90;;;0.50;;
50709;SDS011;37033;49.994;21.992;2023-04-16T09:11:16;0.60;;;0.50;;
50709;SDS011;37033;49.994;21.992;2023-04-16T09:13:47;1.60;;;0.40;;
50709;SDS011;37033;49.994;21.992;2023-04-16T09:16:18;0.50;;;0.50;;
50709;SDS011;37033;49.994;21.992;2023-04-16T09:18:49;1.70;;;0.70;;
50709;SDS011;37033;49.994;21.992;2023-04-16T09:21:21;1.10;;;0.40;;
50709;SDS011;37033;49.994;21.992;2023-04-16T09:23:53;1.60;;;0.80;;
50709;SDS011;37033;49.994;21.992;2023-04-16T09:26:23;1.80;;;0.50;;
50709;SDS011;37033;49.994;21.992;2023-04-16T09:28:55;0.60;;;0.50;;
50709;SDS011;37033;49.994;21.992;2023-04-16T09:31:26;1.00;;;0.50;;
50709;SDS011;37033;49.994;21.992;2023-04-16T09:34:03;0.70;;;0.50;;
50709;SDS011;37033;49.994;21.992;2023-04-16T09:36:35;0.30;;;0.30;;
50709;SDS011;37033;49.994;21.992;2023-04-16T09:39:06;0.50;;;0.50;;
50709;SDS011;37033;49.994;21.992;2023-04-16T09:41:46;0.60;;;0.40;;
50709;SDS011;37033;49.994;21.992;2023-04-16T09:44:17;0.40;;;0.30;;
50709;SDS011;37033;49.994;21.992;2023-04-16T09:46:48;0.30;;;0.30;;
50709;SDS011;37033;49.994;21.992;2023-04-16T09:49:19;0.80;;;0.50;;
50709;SDS011;37033;49.994;21.992;2023-04-16T09:51:49;0.80;;;0.50;;
50709;SDS011;37033;49.994;21.992;2023-04-16T09:54:25;2.10;;;1.20;;
50709;SDS011;37033;49.994;21.992;2023-04-16T09:56:56;1.30;;;1.00;;
50709;SDS011;37033;49.994;21.992;2023-04-16T09:59:31;1.00;;;0.80;;
50709;SDS011;37033;49.994;21.992;2023-04-16T10:02:04;0.60;;;0.60;;
50709;SDS011;37033;49.994;21.992;2023-04-16T10:04:45;0.90;;;0.50;;
50709;SDS011;37033;49.994;21.992;2023-04-16T10:07:17;0.70;;;0.40;;
50709;SDS011;37033;49.994;21.992;2023-04-16T10:09:48;0.90;;;0.50;;
50709;SDS011;37033;49.994;21.992;2023-04-16T10:12:20;2.30;;;0.60;;
50709;SDS011;37033;49.994;21.992;2023-04-16T10:14:51;1.10;;;0.50;;
50709;SDS011;37033;49.994;21.992;2023-04-16T10:17:22;0.80;;;0.30;;
50709;SDS011;37033;49.994;21.992;2023-04-16T10:19:56;0.50;;;0.40;;
50709;SDS011;37033;49.994;21.992;2023-04-16T10:22:28;1.90;;;1.70;;
50709;SDS011;37033;49.994;21.992;2023-04-16T10:24:59;2.40;;;2.20;;
50709;SDS011;37033;49.994;21.992;2023-04-16T10:27:31;4.10;;;2.50;;
50709;SDS011;37033;49.994;21.992;2023-04-16T10:30:03;3.70;;;2.70;;
50709;SDS011;37033;49.994;21.992;2023-04-16T10:32:35;2.50;;;2.30;;
50709;SDS011;37033;49.994;21.992;2023-04-16T10:35:07;2.40;;;2.20;;
50709;SDS011;37033;49.994;21.992;2023-04-16T10:37:42;3.80;;;3.00;;
50709;SDS011;37033;49.994;21.992;2023-04-16T10:43:01;2.60;;;2.20;;
50709;SDS011;37033;49.994;21.992;2023-04-16T10:45:37;2.30;;;2.10;;
50709;SDS011;37033;49.994;21.992;2023-04-16T10:48:07;3.00;;;2.70;;
50709;SDS011;37033;49.994;21.992;2023-04-16T10:50:41;5.50;;;1.90;;
50709;SDS011;37033;49.994;21.992;2023-04-16T10:53:21;1.70;;;1.50;;
50709;SDS011;37033;49.994;21.992;2023-04-16T10:55:57;2.30;;;1.70;;
50709;SDS011;37033;49.994;21.992;2023-04-16T10:58:40;1.90;;;1.50;;
50709;SDS011;37033;49.994;21.992;2023-04-16T11:01:11;1.90;;;1.70;;
50709;SDS011;37033;49.994;21.992;2023-04-16T11:03:44;5.40;;;1.50;;
50709;SDS011;37033;49.994;21.992;2023-04-16T11:06:16;2.00;;;1.50;;
50709;SDS011;37033;49.994;21.992;2023-04-16T11:08:54;1.30;;;1.00;;
50709;SDS011;37033;49.994;21.992;2023-04-16T11:11:25;1.90;;;0.90;;
50709;SDS011;37033;49.994;21.992;2023-04-16T11:14:05;2.00;;;1.20;;
50709;SDS011;37033;49.994;21.992;2023-04-16T11:16:40;1.80;;;1.60;;
50709;SDS011;37033;49.994;21.992;2023-04-16T11:19:15;2.60;;;1.40;;
50709;SDS011;37033;49.994;21.992;2023-04-16T11:21:46;4.20;;;1.40;;
50709;SDS011;37033;49.994;21.992;2023-04-16T11:24:18;2.70;;;1.60;;
50709;SDS011;37033;49.994;21.992;2023-04-16T11:26:51;3.70;;;1.50;;
50709;SDS011;37033;49.994;21.992;2023-04-16T11:29:21;4.80;;;3.60;;
50709;SDS011;37033;49.994;21.992;2023-04-16T11:31:53;1.60;;;1.20;;
50709;SDS011;37033;49.994;21.992;2023-04-16T11:34:23;2.20;;;0.90;;
50709;SDS011;37033;49.994;21.992;2023-04-16T11:36:54;1.20;;;1.10;;
50709;SDS011;37033;49.994;21.992;2023-04-16T11:39:25;1.30;;;1.10;;
50709;SDS011;37033;49.994;21.992;2023-04-16T11:41:56;1.10;;;1.00;;
50709;SDS011;37033;49.994;21.992;2023-04-16T11:44:26;4.20;;;1.20;;
50709;SDS011;37033;49.994;21.992;2023-04-16T11:46:57;1.30;;;1.10;;
50709;SDS011;37033;49.994;21.992;2023-04-16T11:49:35;1.20;;;0.80;;
50709;SDS011;37033;49.994;21.992;2023-04-16T11:52:05;1.20;;;1.10;;
50709;SDS011;37033;49.994;21.992;2023-04-16T11:54:36;1.40;;;1.10;;
50709;SDS011;37033;49.994;21.992;2023-04-16T11:57:07;2.90;;;1.40;;
50709;SDS011;37033;49.994;21.992;2023-04-16T11:59:44;1.60;;;1.40;;
50709;SDS011;37033;49.994;21.992;2023-04-16T12:02:15;1.50;;;1.20;;
50709;SDS011;37033;49.994;21.992;2023-04-16T12:05:01;1.30;;;1.10;;
50709;SDS011;37033;49.994;21.992;2023-04-16T12:07:41;2.80;;;1.20;;
50709;SDS011;37033;49.994;21.992;2023-04-16T12:10:13;1.40;;;1.30;;
50709;SDS011;37033;49.994;21.992;2023-04-16T12:12:44;2.70;;;1.10;;
50709;SDS011;37033;49.994;21.992;2023-04-16T12:15:15;1.50;;;0.80;;
50709;SDS011;37033;49.994;21.992;2023-04-16T12:17:45;0.90;;;0.70;;
50709;SDS011;37033;49.994;21.992;2023-04-16T12:20:17;0.70;;;0.70;;
50709;SDS011;37033;49.994;21.992;2023-04-16T12:22:48;1.20;;;0.90;;
50709;SDS011;37033;49.994;21.992;2023-04-16T12:25:20;1.60;;;1.20;;
50709;SDS011;37033;49.994;21.992;2023-04-16T12:27:54;2.00;;;1.10;;
50709;SDS011;37033;49.994;21.992;2023-04-16T12:30:25;1.40;;;1.00;;
50709;SDS011;37033;49.994;21.992;2023-04-16T12:35:45;1.80;;;1.10;;
50709;SDS011;37033;49.994;21.992;2023-04-16T12:38:16;1.30;;;1.20;;
50709;SDS011;37033;49.994;21.992;2023-04-16T12:40:47;1.20;;;1.10;;
50709;SDS011;37033;49.994;21.992;2023-04-16T12:43:19;1.10;;;1.00;;
50709;SDS011;37033;49.994;21.992;2023-04-16T12:45:50;1.50;;;0.90;;
50709;SDS011;37033;49.994;21.992;2023-04-16T12:48:21;1.60;;;1.10;;
50709;SDS011;37033;49.994;21.992;2023-04-16T12:50:53;1.30;;;1.00;;
50709;SDS011;37033;49.994;21.992;2023-04-16T12:53:24;1.80;;;1.20;;
50709;SDS011;37033;49.994;21.992;2023-04-16T12:55:54;1.00;;;0.80;;
50709;SDS011;37033;49.994;21.992;2023-04-16T12:58:26;1.10;;;1.00;;
50709;SDS011;37033;49.994;21.992;2023-04-16T13:00:56;1.30;;;1.20;;
50709;SDS011;37033;49.994;21.992;2023-04-16T13:03:27;2.00;;;1.20;;
50709;SDS011;37033;49.994;21.992;2023-04-16T13:05:58;2.30;;;1.20;;
50709;SDS011;37033;49.994;21.992;2023-04-16T13:08:29;2.20;;;1.10;;
50709;SDS011;37033;49.994;21.992;2023-04-16T13:11:00;2.20;;;0.90;;
50709;SDS011;37033;49.994;21.992;2023-04-16T13:13:31;1.40;;;1.10;;
50709;SDS011;37033;49.994;21.992;2023-04-16T13:16:02;1.00;;;0.90;;
50709;SDS011;37033;49.994;21.992;2023-04-16T13:18:35;5.10;;;3.20;;
50709;SDS011;37033;49.994;21.992;2023-04-16T13:21:06;2.20;;;2.00;;
50709;SDS011;37033;49.994;21.992;2023-04-16T13:23:37;3.00;;;1.30;;
50709;SDS011;37033;49.994;21.992;2023-04-16T13:26:08;5.20;;;4.30;;
50709;SDS011;37033;49.994;21.992;2023-04-16T13:28:39;3.30;;;2.40;;
50709;SDS011;37033;49.994;21.992;2023-04-16T13:31:10;7.80;;;5.90;;
50709;SDS011;37033;49.994;21.992;2023-04-16T13:33:42;1.00;;;0.90;;
50709;SDS011;37033;49.994;21.992;2023-04-16T13:36:13;2.00;;;1.10;;
50709;SDS011;37033;49.994;21.992;2023-04-16T13:38:44;1.50;;;1.30;;
50709;SDS011;37033;49.994;21.992;2023-04-16T13:41:18;1.70;;;1.20;;
50709;SDS011;37033;49.994;21.992;2023-04-16T13:43:52;1.60;;;1.20;;
50709;SDS011;37033;49.994;21.992;2023-04-16T13:46:23;2.00;;;1.10;;
50709;SDS011;37033;49.994;21.992;2023-04-16T13:48:54;2.20;;;2.00;;
50709;SDS011;37033;49.994;21.992;2023-04-16T13:51:25;2.80;;;1.00;;
50709;SDS011;37033;49.994;21.992;2023-04-16T13:53:55;2.10;;;1.00;;
50709;SDS011;37033;49.994;21.992;2023-04-16T13:56:26;0.80;;;0.70;;
50709;SDS011;37033;49.994;21.992;2023-04-16T13:58:57;1.10;;;0.80;;
50709;SDS011;37033;49.994;21.992;2023-04-16T14:01:28;0.50;;;0.50;;
50709;SDS011;37033;49.994;21.992;2023-04-16T14:03:59;0.90;;;0.80;;
50709;SDS011;37033;49.994;21.992;2023-04-16T14:06:32;1.10;;;0.80;;
50709;SDS011;37033;49.994;21.992;2023-04-16T14:09:03;0.80;;;0.70;;
50709;SDS011;37033;49.994;21.992;2023-04-16T14:11:36;1.90;;;0.90;;
50709;SDS011;37033;49.994;21.992;2023-04-16T14:14:07;1.40;;;0.70;;
50709;SDS011;37033;49.994;21.992;2023-04-16T14:16:40;2.10;;;1.10;;
50709;SDS011;37033;49.994;21.992;2023-04-16T14:19:11;1.80;;;1.50;;
50709;SDS011;37033;49.994;21.992;2023-04-16T14:21:42;0.70;;;0.60;;
50709;SDS011;37033;49.994;21.992;2023-04-16T14:24:13;1.20;;;0.70;;
50709;SDS011;37033;49.994;21.992;2023-04-16T14:26:44;1.10;;;0.70;;
50709;SDS011;37033;49.994;21.992;2023-04-16T14:29:14;2.10;;;0.90;;
50709;SDS011;37033;49.994;21.992;2023-04-16T14:31:45;1.00;;;0.70;;
50709;SDS011;37033;49.994;21.992;2023-04-16T14:34:17;1.00;;;0.70;;
50709;SDS011;37033;49.994;21.992;2023-04-16T14:36:47;1.20;;;0.90;;
50709;SDS011;37033;49.994;21.992;2023-04-16T14:39:21;1.30;;;1.00;;
50709;SDS011;37033;49.994;21.992;2023-04-16T14:41:52;1.90;;;1.10;;
50709;SDS011;37033;49.994;21.992;2023-04-16T14:44:23;1.30;;;1.00;;
50709;SDS011;37033;49.994;21.992;2023-04-16T14:46:56;0.60;;;0.50;;
50709;SDS011;37033;49.994;21.992;2023-04-16T14:49:27;1.20;;;0.80;;
50709;SDS011;37033;49.994;21.992;2023-04-16T14:51:58;0.60;;;0.50;;
50709;SDS011;37033;49.994;21.992;2023-04-16T14:54:32;1.30;;;0.60;;
50709;SDS011;37033;49.994;21.992;2023-04-16T14:57:02;2.40;;;0.70;;
50709;SDS011;37033;49.994;21.992;2023-04-16T14:59:33;1.50;;;0.60;;
50709;SDS011;37033;49.994;21.992;2023-04-16T15:02:04;2.50;;;1.00;;
50709;SDS011;37033;49.994;21.992;2023-04-16T15:04:35;0.90;;;0.80;;
50709;SDS011;37033;49.994;21.992;2023-04-16T15:07:06;1.10;;;0.90;;